Time;durP1;ratioP1;P1;durP2;ratioP2;P2;SDS_P1;SDS_P2;PMS_P1;PMS_P2;Temp;Humidity;BMP_temperature;BMP_pressure;BME280_temperature;BME280_humidity;BME280_pressure;Samples;Min_cycle;Max_cycle;Signal;HPM_P1;HPM_P2
2023/07/28 00:01:11;;;;;;;85.90;31.10;;;;;;;;;;4897317;29;20423;-64
2023/07/28 00:03:37;;;;;;;76.27;31.37;;;;;;;;;;4913672;29;20040;-65
2023/07/28 00:06:03;;;;;;;62.57;28.73;;;;;;;;;;4913737;29;20048;-64
2023/07/28 00:08:29;;;;;;;87.03;32.33;;;;;;;;;;4914451;29;20051;-65
2023/07/28 00:10:55;;;;;;;57.40;27.23;;;;;;;;;;4913834;29;20071;-64
2023/07/28 00:13:21;;;;;;;71.40;28.67;;;;;;;;;;4914374;29;20060;-65
2023/07/28 00:15:47;;;;;;;67.70;28.93;;;;;;;;;;4914379;29;20048;-64
2023/07/28 00:18:14;;;;;;;69.00;29.00;;;;;;;;;;4914531;29;20052;-64
2023/07/28 00:20:40;;;;;;;58.00;27.60;;;;;;;;;;4913491;29;20044;-64
2023/07/28 00:23:06;;;;;;;70.67;29.57;;;;;;;;;;4913830;29;20417;-64
2023/07/28 00:25:32;;;;;;;70.27;29.23;;;;;;;;;;4914029;29;20063;-64
2023/07/28 00:27:58;;;;;;;88.33;33.80;;;;;;;;;;4914174;29;20060;-64
2023/07/28 00:30:25;;;;;;;80.67;31.83;;;;;;;;;;4914330;29;20071;-64
2023/07/28 00:32:51;;;;;;;77.27;32.57;;;;;;;;;;4914190;29;20123;-64
2023/07/28 00:35:17;;;;;;;109.53;37.53;;;;;;;;;;4913169;29;20471;-64
2023/07/28 00:37:45;;;;;;;63.97;29.67;;;;;;;;;;4912670;29;20040;-64
2023/07/28 00:40:12;;;;;;;64.77;30.37;;;;;;;;;;4913223;29;20088;-64
2023/07/28 00:42:38;;;;;;;76.97;33.00;;;;;;;;;;4914184;29;20052;-64
2023/07/28 00:45:04;;;;;;;70.87;31.23;;;;;;;;;;4913989;29;20064;-64
2023/07/28 00:47:30;;;;;;;92.83;32.73;;;;;;;;;;4914199;29;20083;-64
2023/07/28 00:49:56;;;;;;;77.97;31.70;;;;;;;;;;4913944;29;20100;-64
2023/07/28 00:52:22;;;;;;;71.37;29.93;;;;;;;;;;4913917;29;20048;-64
2023/07/28 00:54:48;;;;;;;72.47;31.23;;;;;;;;;;4913461;29;20052;-64
2023/07/28 00:57:14;;;;;;;68.57;30.47;;;;;;;;;;4913203;29;20338;-64
2023/07/28 00:59:40;;;;;;;82.27;31.67;;;;;;;;;;4896838;29;20080;-64
2023/07/28 01:02:06;;;;;;;111.60;36.87;;;;;;;;;;4912510;29;20048;-64
2023/07/28 01:04:32;;;;;;;71.30;31.70;;;;;;;;;;4913942;29;20521;-64
2023/07/28 01:07:18;;;;;;;104.17;34.97;;;;;;;;;;4913742;29;20138;-64
2023/07/28 01:09:51;;;;;;;70.53;32.53;;;;;;;;;;4906080;29;20147;-64
2023/07/28 01:12:16;;;;;;;107.22;36.92;;;;;;;;;;4913628;29;20107;-64
2023/07/28 01:14:44;;;;;;;96.13;34.77;;;;;;;;;;4913005;29;20439;-64
2023/07/28 01:17:10;;;;;;;97.73;35.87;;;;;;;;;;4913589;29;20052;-64
2023/07/28 01:19:36;;;;;;;77.40;31.43;;;;;;;;;;4913245;29;20040;-64
2023/07/28 01:22:17;;;;;;;83.20;31.57;;;;;;;;;;4912652;29;20479;-64
2023/07/28 01:24:51;;;;;;;69.87;31.67;;;;;;;;;;4913724;29;20111;-64
2023/07/28 01:27:18;;;;;;;67.63;30.27;;;;;;;;;;4912797;29;20543;-64
2023/07/28 01:29:44;;;;;;;70.33;33.07;;;;;;;;;;4913910;29;20096;-64
2023/07/28 01:32:13;;;;;;;97.70;34.57;;;;;;;;;;4912591;29;20052;-64
2023/07/28 01:34:39;;;;;;;86.70;33.17;;;;;;;;;;4895649;29;20471;-64
2023/07/28 01:37:05;;;;;;;93.07;33.07;;;;;;;;;;4913077;29;20067;-64
2023/07/28 01:39:31;;;;;;;73.60;31.43;;;;;;;;;;4912336;29;20062;-64
2023/07/28 01:41:58;;;;;;;71.13;30.97;;;;;;;;;;4913386;29;20048;-64
2023/07/28 01:44:26;;;;;;;71.97;31.83;;;;;;;;;;4912552;29;20123;-65
2023/07/28 01:46:52;;;;;;;75.37;31.03;;;;;;;;;;4913258;29;20052;-64
2023/07/28 01:49:18;;;;;;;61.00;27.53;;;;;;;;;;4912140;29;20125;-64
2023/07/28 01:51:44;;;;;;;68.47;31.17;;;;;;;;;;4894065;29;20047;-64
2023/07/28 01:54:10;;;;;;;61.10;29.77;;;;;;;;;;4877247;29;20419;-64
2023/07/28 01:56:35;;;;;;;61.43;27.50;;;;;;;;;;4894079;29;20040;-64
2023/07/28 01:59:01;;;;;;;67.10;30.07;;;;;;;;;;4893576;29;20056;-64
2023/07/28 02:01:27;;;;;;;80.90;31.80;;;;;;;;;;4893918;29;20590;-64
2023/07/28 02:03:53;;;;;;;58.77;26.17;;;;;;;;;;4912733;29;20123;-64
2023/07/28 02:06:19;;;;;;;69.73;28.60;;;;;;;;;;4912811;29;20475;-64
2023/07/28 02:08:45;;;;;;;55.10;26.97;;;;;;;;;;4911720;29;20048;-64
2023/07/28 02:11:11;;;;;;;72.93;30.13;;;;;;;;;;4912239;29;20111;-65
2023/07/28 02:13:37;;;;;;;66.33;27.53;;;;;;;;;;4912689;29;20521;-65
2023/07/28 02:16:03;;;;;;;68.73;28.37;;;;;;;;;;4912336;29;20468;-64
2023/07/28 02:18:29;;;;;;;53.10;26.57;;;;;;;;;;4912480;29;20147;-64
2023/07/28 02:20:55;;;;;;;60.80;26.93;;;;;;;;;;4911563;29;20330;-64
2023/07/28 02:23:21;;;;;;;74.23;29.23;;;;;;;;;;4912596;29;20126;-64
2023/07/28 02:25:47;;;;;;;64.03;26.67;;;;;;;;;;4910620;29;20419;-64
2023/07/28 02:28:13;;;;;;;81.33;29.23;;;;;;;;;;4924393;29;20066;-64
2023/07/28 02:30:39;;;;;;;60.13;25.57;;;;;;;;;;4931583;29;20051;-65
2023/07/28 02:33:05;;;;;;;83.60;28.70;;;;;;;;;;4930411;29;20102;-64
2023/07/28 02:35:32;;;;;;;58.57;27.00;;;;;;;;;;4916436;29;20047;-64
2023/07/28 02:37:58;;;;;;;71.17;28.30;;;;;;;;;;4912437;29;20048;-64
2023/07/28 02:40:24;;;;;;;65.43;26.27;;;;;;;;;;4895305;29;20056;-64
2023/07/28 02:42:53;;;;;;;66.77;28.37;;;;;;;;;;4912395;29;20507;-64
2023/07/28 02:45:19;;;;;;;69.80;27.73;;;;;;;;;;4911686;29;20116;-64
2023/07/28 02:47:46;;;;;;;64.57;27.30;;;;;;;;;;4911384;29;20080;-64
2023/07/28 02:50:12;;;;;;;70.27;27.33;;;;;;;;;;4895822;29;20052;-64
2023/07/28 02:52:38;;;;;;;62.50;25.90;;;;;;;;;;4912338;29;20059;-64
2023/07/28 02:55:04;;;;;;;63.00;25.90;;;;;;;;;;4911306;29;20044;-64
2023/07/28 02:57:30;;;;;;;68.80;27.90;;;;;;;;;;4916296;29;20459;-63
2023/07/28 02:59:56;;;;;;;74.57;28.80;;;;;;;;;;4915998;29;20059;-64
2023/07/28 03:02:22;;;;;;;63.97;25.60;;;;;;;;;;4916096;29;20052;-64
2023/07/28 03:04:48;;;;;;;65.20;27.33;;;;;;;;;;4915407;29;20044;-64
2023/07/28 03:07:14;;;;;;;56.93;24.00;;;;;;;;;;4915973;29;20044;-64
2023/07/28 03:09:40;;;;;;;54.20;25.00;;;;;;;;;;4915574;29;20410;-64
2023/07/28 03:12:06;;;;;;;66.67;27.20;;;;;;;;;;4915896;29;20052;-64
2023/07/28 03:14:32;;;;;;;75.00;28.53;;;;;;;;;;4915183;29;20130;-64
2023/07/28 03:16:58;;;;;;;56.70;25.40;;;;;;;;;;4915680;29;20051;-64
2023/07/28 03:19:24;;;;;;;73.30;27.67;;;;;;;;;;4916000;29;20048;-64
2023/07/28 03:21:52;;;;;;;61.90;26.43;;;;;;;;;;4915585;29;20052;-64
2023/07/28 03:24:18;;;;;;;63.03;26.63;;;;;;;;;;4914540;29;20048;-64
2023/07/28 03:26:44;;;;;;;60.30;26.53;;;;;;;;;;4915242;29;20087;-64
2023/07/28 03:29:10;;;;;;;56.73;26.03;;;;;;;;;;4915576;29;20060;-64
2023/07/28 03:31:36;;;;;;;61.07;25.90;;;;;;;;;;4915932;29;20052;-64
2023/07/28 03:34:03;;;;;;;80.77;28.87;;;;;;;;;;4914674;29;20120;-64
2023/07/28 03:36:29;;;;;;;55.40;25.47;;;;;;;;;;4896857;29;20056;-64
2023/07/28 03:38:55;;;;;;;56.73;25.23;;;;;;;;;;4896228;29;20100;-64
2023/07/28 03:41:21;;;;;;;59.43;24.73;;;;;;;;;;4896325;29;20055;-64
2023/07/28 03:43:47;;;;;;;71.07;27.43;;;;;;;;;;4896908;29;20136;-64
2023/07/28 03:46:13;;;;;;;56.70;26.30;;;;;;;;;;4913853;29;20170;-64
2023/07/28 03:48:39;;;;;;;73.43;27.30;;;;;;;;;;4915766;29;20060;-64
2023/07/28 03:51:05;;;;;;;66.37;26.67;;;;;;;;;;4914922;29;20055;-63
2023/07/28 03:53:31;;;;;;;65.50;26.47;;;;;;;;;;4914266;29;20448;-64
2023/07/28 03:55:58;;;;;;;53.13;23.93;;;;;;;;;;4914976;29;20131;-64
2023/07/28 03:58:26;;;;;;;80.13;29.80;;;;;;;;;;4914961;29;20562;-64
2023/07/28 04:00:53;;;;;;;60.13;26.67;;;;;;;;;;4915130;29;20052;-64
2023/07/28 04:03:19;;;;;;;68.63;27.93;;;;;;;;;;4914734;29;20052;-64
2023/07/28 04:05:45;;;;;;;63.87;26.67;;;;;;;;;;4914010;29;20044;-64
2023/07/28 04:08:11;;;;;;;73.73;29.37;;;;;;;;;;4914954;29;20415;-64
2023/07/28 04:10:37;;;;;;;70.47;29.60;;;;;;;;;;4915006;29;20059;-64
2023/07/28 04:13:05;;;;;;;70.20;30.73;;;;;;;;;;4914912;29;20495;-64
2023/07/28 04:15:31;;;;;;;69.57;28.40;;;;;;;;;;4914042;29;20056;-64
2023/07/28 04:17:57;;;;;;;61.13;27.13;;;;;;;;;;4914003;29;20055;-64
2023/07/28 04:20:23;;;;;;;55.87;26.27;;;;;;;;;;4914801;29;20054;-64
2023/07/28 04:22:49;;;;;;;68.00;28.90;;;;;;;;;;4914427;29;20518;-64
2023/07/28 04:25:15;;;;;;;71.03;30.00;;;;;;;;;;4913831;29;20108;-64
2023/07/28 04:27:41;;;;;;;74.20;29.80;;;;;;;;;;4914382;29;20076;-64
2023/07/28 04:30:07;;;;;;;87.50;31.67;;;;;;;;;;4913872;29;20059;-64
2023/07/28 04:32:33;;;;;;;71.20;28.13;;;;;;;;;;4913389;29;20471;-64
2023/07/28 04:34:59;;;;;;;68.03;28.73;;;;;;;;;;4913044;29;20131;-64
2023/07/28 04:37:25;;;;;;;72.27;30.30;;;;;;;;;;4913874;29;20083;-64
2023/07/28 04:39:51;;;;;;;61.20;29.13;;;;;;;;;;4913343;29;20051;-64
2023/07/28 04:42:17;;;;;;;63.40;27.37;;;;;;;;;;4913335;29;20060;-64
2023/07/28 04:44:44;;;;;;;67.00;28.90;;;;;;;;;;4912532;29;20051;-64
2023/07/28 04:47:10;;;;;;;57.37;27.17;;;;;;;;;;4913363;29;20102;-64
2023/07/28 04:49:36;;;;;;;91.50;32.67;;;;;;;;;;4913721;29;20123;-64
2023/07/28 04:52:02;;;;;;;81.30;31.10;;;;;;;;;;4913251;29;20685;-64
2023/07/28 04:54:28;;;;;;;58.57;26.87;;;;;;;;;;4911536;29;20052;-64
2023/07/28 04:56:54;;;;;;;62.97;27.67;;;;;;;;;;4913578;29;20051;-64
2023/07/28 04:59:20;;;;;;;63.97;27.43;;;;;;;;;;4912663;29;20039;-63
2023/07/28 05:01:46;;;;;;;61.20;26.37;;;;;;;;;;4913074;29;20499;-64
2023/07/28 05:04:12;;;;;;;84.17;30.20;;;;;;;;;;4912776;29;20127;-64
2023/07/28 05:06:38;;;;;;;65.17;29.43;;;;;;;;;;4912749;29;20717;-64
2023/07/28 05:09:04;;;;;;;56.73;28.40;;;;;;;;;;4910336;29;20044;-63
2023/07/28 05:11:30;;;;;;;65.83;27.70;;;;;;;;;;4912820;29;20180;-64
2023/07/28 05:13:56;;;;;;;60.07;26.87;;;;;;;;;;4913199;29;20044;-64
2023/07/28 05:16:22;;;;;;;55.53;26.73;;;;;;;;;;4912163;29;20406;-64
2023/07/28 05:18:48;;;;;;;53.27;26.30;;;;;;;;;;4911087;29;20040;-64
2023/07/28 05:21:14;;;;;;;51.53;25.37;;;;;;;;;;4912844;29;20427;-64
2023/07/28 05:23:40;;;;;;;68.40;29.30;;;;;;;;;;4912752;29;20130;-64
2023/07/28 05:26:06;;;;;;;61.87;27.33;;;;;;;;;;4912534;29;20047;-64
2023/07/28 05:28:35;;;;;;;51.97;26.83;;;;;;;;;;4911286;29;20493;-64
2023/07/28 05:31:05;;;;;;;49.60;25.17;;;;;;;;;;4911621;29;20063;-64
2023/07/28 05:33:31;;;;;;;58.67;27.27;;;;;;;;;;4912604;29;20112;-64
2023/07/28 05:36:04;;;;;;;69.20;28.50;;;;;;;;;;4912147;29;20098;-63
2023/07/28 05:38:30;;;;;;;53.05;26.10;;;;;;;;;;4912014;29;20080;-64
2023/07/28 05:41:03;;;;;;;52.23;25.20;;;;;;;;;;4912270;29;20052;-64
2023/07/28 05:43:29;;;;;;;54.92;26.13;;;;;;;;;;4911064;29;20111;-64
2023/07/28 05:45:55;;;;;;;44.40;24.43;;;;;;;;;;4912705;29;20044;-63
2023/07/28 05:48:22;;;;;;;61.90;28.00;;;;;;;;;;4911776;29;20530;-64
2023/07/28 05:50:48;;;;;;;53.00;25.63;;;;;;;;;;4912002;29;20044;-64
2023/07/28 05:53:14;;;;;;;46.60;23.73;;;;;;;;;;4912670;29;20430;-64
2023/07/28 05:55:40;;;;;;;73.90;28.50;;;;;;;;;;4912021;29;20522;-64
2023/07/28 05:58:06;;;;;;;41.37;22.83;;;;;;;;;;4911464;29;20060;-64
2023/07/28 06:00:32;;;;;;;42.30;23.13;;;;;;;;;;4911699;29;20070;-64
2023/07/28 06:02:59;;;;;;;46.17;24.60;;;;;;;;;;4911101;29;20043;-64
2023/07/28 06:05:25;;;;;;;46.73;23.63;;;;;;;;;;4912191;29;20056;-63
2023/07/28 06:07:51;;;;;;;40.83;23.03;;;;;;;;;;4911820;29;20044;-64
2023/07/28 06:10:17;;;;;;;60.63;26.30;;;;;;;;;;4894329;29;20139;-64
2023/07/28 06:12:43;;;;;;;44.33;22.53;;;;;;;;;;4912225;29;20070;-64
2023/07/28 06:15:09;;;;;;;47.43;23.40;;;;;;;;;;4911233;29;20452;-64
2023/07/28 06:17:35;;;;;;;55.27;24.50;;;;;;;;;;4895202;29;20051;-64
2023/07/28 06:20:01;;;;;;;50.53;22.30;;;;;;;;;;4908179;29;20499;-64
2023/07/28 06:22:27;;;;;;;47.00;23.47;;;;;;;;;;4911630;29;20059;-64
2023/07/28 06:24:53;;;;;;;49.33;22.37;;;;;;;;;;4909643;29;20044;-64
2023/07/28 06:27:19;;;;;;;37.67;21.00;;;;;;;;;;4911259;29;20052;-63
2023/07/28 06:29:45;;;;;;;40.77;21.97;;;;;;;;;;4911520;29;20422;-64
2023/07/28 06:32:11;;;;;;;44.30;21.93;;;;;;;;;;4911752;29;20333;-64
2023/07/28 06:34:37;;;;;;;41.97;20.50;;;;;;;;;;4912288;29;20044;-64
2023/07/28 06:37:04;;;;;;;41.87;21.13;;;;;;;;;;4911889;29;20061;-63
2023/07/28 06:39:30;;;;;;;37.07;20.17;;;;;;;;;;4911872;29;20044;-64
2023/07/28 06:41:56;;;;;;;33.33;17.33;;;;;;;;;;4910331;29;20131;-64
2023/07/28 06:44:22;;;;;;;28.77;16.60;;;;;;;;;;4911587;29;20044;-64
2023/07/28 06:46:48;;;;;;;33.57;17.07;;;;;;;;;;4910980;29;20250;-64
2023/07/28 06:49:14;;;;;;;27.40;15.47;;;;;;;;;;4911589;29;20554;-64
2023/07/28 06:51:40;;;;;;;25.40;15.07;;;;;;;;;;4911120;29;20050;-64
2023/07/28 06:54:11;;;;;;;25.47;15.03;;;;;;;;;;4911502;29;20391;-64
2023/07/28 06:56:37;;;;;;;28.40;15.80;;;;;;;;;;4911729;29;20938;-64
2023/07/28 06:59:03;;;;;;;29.50;15.97;;;;;;;;;;4911236;29;20087;-64
2023/07/28 07:01:29;;;;;;;22.13;14.77;;;;;;;;;;4910324;29;20514;-64
2023/07/28 07:03:55;;;;;;;27.03;15.43;;;;;;;;;;4914448;29;20048;-64
2023/07/28 07:06:21;;;;;;;25.57;14.87;;;;;;;;;;4911257;29;20052;-64
2023/07/28 07:08:47;;;;;;;25.73;15.70;;;;;;;;;;4911204;29;20072;-64
2023/07/28 07:11:13;;;;;;;26.40;14.67;;;;;;;;;;4910957;29;20554;-64
2023/07/28 07:13:39;;;;;;;25.23;14.77;;;;;;;;;;4912413;29;20471;-64
2023/07/28 07:16:06;;;;;;;23.63;14.77;;;;;;;;;;4922102;29;20040;-64
2023/07/28 07:18:32;;;;;;;28.13;15.43;;;;;;;;;;4910796;29;20388;-64
2023/07/28 07:21:03;;;;;;;24.63;14.80;;;;;;;;;;4909956;29;20052;-64
2023/07/28 07:23:29;;;;;;;23.60;15.33;;;;;;;;;;4910923;29;20044;-64
2023/07/28 07:25:55;;;;;;;22.70;13.77;;;;;;;;;;4911403;29;20059;-64
2023/07/28 07:28:22;;;;;;;21.87;13.10;;;;;;;;;;4910505;29;20415;-64
2023/07/28 07:30:48;;;;;;;27.07;13.83;;;;;;;;;;4910667;29;20063;-65
2023/07/28 07:33:14;;;;;;;19.43;11.57;;;;;;;;;;4911363;29;20067;-65
2023/07/28 07:35:40;;;;;;;21.47;12.03;;;;;;;;;;4911846;29;20388;-64
2023/07/28 07:38:08;;;;;;;17.77;11.83;;;;;;;;;;4911549;29;20055;-65
2023/07/28 07:40:35;;;;;;;18.20;11.60;;;;;;;;;;4893920;29;20080;-64
2023/07/28 07:43:03;;;;;;;18.57;11.27;;;;;;;;;;4914602;29;20074;-64
2023/07/28 07:45:29;;;;;;;18.43;10.87;;;;;;;;;;4910646;29;20044;-64
2023/07/28 07:47:55;;;;;;;12.43;9.73;;;;;;;;;;4914322;29;20066;-64
2023/07/28 07:50:21;;;;;;;18.77;9.70;;;;;;;;;;4914169;29;20095;-64
2023/07/28 07:52:48;;;;;;;15.70;10.20;;;;;;;;;;4913651;29;20048;-64
2023/07/28 07:55:14;;;;;;;17.30;9.70;;;;;;;;;;4912333;29;20051;-64
2023/07/28 07:57:40;;;;;;;15.13;9.27;;;;;;;;;;4912627;29;20400;-64
2023/07/28 08:00:06;;;;;;;17.50;8.63;;;;;;;;;;4911207;29;20463;-65
2023/07/28 08:02:32;;;;;;;14.53;9.37;;;;;;;;;;4912078;29;20080;-65
2023/07/28 08:04:58;;;;;;;10.27;8.27;;;;;;;;;;4912556;29;20043;-65
2023/07/28 08:07:24;;;;;;;13.97;8.13;;;;;;;;;;4912853;29;20052;-65
2023/07/28 08:09:51;;;;;;;13.53;8.10;;;;;;;;;;4914095;29;20059;-64
2023/07/28 08:12:17;;;;;;;12.27;7.53;;;;;;;;;;4914060;29;20048;-64
2023/07/28 08:14:43;;;;;;;14.20;7.97;;;;;;;;;;4913994;29;20107;-64
2023/07/28 08:17:10;;;;;;;14.23;7.77;;;;;;;;;;4913989;29;20099;-65
2023/07/28 08:19:36;;;;;;;10.30;6.50;;;;;;;;;;4913938;29;20048;-65
2023/07/28 08:22:05;;;;;;;10.80;7.20;;;;;;;;;;4914062;29;20052;-64
2023/07/28 08:24:32;;;;;;;7.90;5.87;;;;;;;;;;4913617;29;20056;-64
2023/07/28 08:26:58;;;;;;;10.47;5.80;;;;;;;;;;4913816;29;20067;-64
2023/07/28 08:29:24;;;;;;;9.57;5.80;;;;;;;;;;4913667;29;20048;-64
2023/07/28 08:31:50;;;;;;;9.03;6.37;;;;;;;;;;4913843;29;20071;-64
2023/07/28 08:34:17;;;;;;;10.10;6.30;;;;;;;;;;4913343;29;20052;-64
2023/07/28 08:36:43;;;;;;;15.00;7.10;;;;;;;;;;4913668;29;20172;-65
2023/07/28 08:39:09;;;;;;;10.83;5.70;;;;;;;;;;4913476;29;20412;-64
2023/07/28 08:41:35;;;;;;;13.00;6.03;;;;;;;;;;4896582;29;20518;-64
2023/07/28 08:44:02;;;;;;;12.93;6.43;;;;;;;;;;4913307;29;20052;-64
2023/07/28 08:46:29;;;;;;;11.87;6.67;;;;;;;;;;4913340;29;20059;-64
2023/07/28 08:48:55;;;;;;;13.17;7.07;;;;;;;;;;4913717;29;20048;-64
2023/07/28 08:51:24;;;;;;;14.90;6.97;;;;;;;;;;4913501;29;20067;-64
2023/07/28 08:53:50;;;;;;;12.60;6.67;;;;;;;;;;4911895;29;20052;-64
2023/07/28 08:56:16;;;;;;;13.23;6.70;;;;;;;;;;4913477;29;20085;-64
2023/07/28 08:58:42;;;;;;;14.70;6.50;;;;;;;;;;4913815;29;20079;-63
2023/07/28 09:01:09;;;;;;;17.03;7.50;;;;;;;;;;4913238;29;20055;-63
2023/07/28 09:03:40;;;;;;;14.17;8.40;;;;;;;;;;4913062;29;20480;-63
2023/07/28 09:06:08;;;;;;;13.20;7.90;;;;;;;;;;4913523;29;20054;-63
2023/07/28 09:08:35;;;;;;;15.07;7.73;;;;;;;;;;4913224;29;20044;-63
2023/07/28 09:11:06;;;;;;;16.70;7.77;;;;;;;;;;4912841;29;20063;-63
2023/07/28 09:13:37;;;;;;;12.77;7.93;;;;;;;;;;4913064;29;20044;-63
2023/07/28 09:16:04;;;;;;;12.00;7.13;;;;;;;;;;4912671;29;20048;-63
2023/07/28 09:18:30;;;;;;;13.27;6.90;;;;;;;;;;4913231;29;20054;-63
2023/07/28 09:20:57;;;;;;;9.93;6.80;;;;;;;;;;4912701;29;20056;-63
2023/07/28 09:23:30;;;;;;;11.40;6.27;;;;;;;;;;4912777;29;20107;-62
2023/07/28 09:26:02;;;;;;;10.30;6.73;;;;;;;;;;4912648;29;20048;-62
2023/07/28 09:28:38;;;;;;;13.77;6.70;;;;;;;;;;4912136;29;20068;-62
2023/07/28 09:31:05;;;;;;;16.00;8.17;;;;;;;;;;4912738;29;20415;-62
2023/07/28 09:33:32;;;;;;;15.03;9.07;;;;;;;;;;4912521;29;20095;-62
2023/07/28 09:36:07;;;;;;;15.67;7.73;;;;;;;;;;4912528;29;20044;-62
2023/07/28 09:38:34;;;;;;;15.63;8.00;;;;;;;;;;4912677;29;20048;-62
2023/07/28 09:41:02;;;;;;;16.17;8.43;;;;;;;;;;4912092;29;20056;-62
2023/07/28 09:43:28;;;;;;;11.87;8.70;;;;;;;;;;4912560;29;20074;-62
2023/07/28 09:45:54;;;;;;;18.03;8.57;;;;;;;;;;4912307;29;20418;-62
2023/07/28 09:48:20;;;;;;;13.70;8.93;;;;;;;;;;4912355;29;20048;-63
2023/07/28 09:50:47;;;;;;;14.20;9.23;;;;;;;;;;4912463;29;20044;-62
2023/07/28 09:53:13;;;;;;;16.80;9.03;;;;;;;;;;4911646;29;20040;-62
2023/07/28 09:55:44;;;;;;;16.40;9.33;;;;;;;;;;4912121;29;20111;-62
2023/07/28 09:58:12;;;;;;;18.60;9.87;;;;;;;;;;4912012;29;20471;-62
2023/07/28 10:00:38;;;;;;;16.80;9.80;;;;;;;;;;4912165;29;20134;-62
2023/07/28 10:03:05;;;;;;;11.63;8.77;;;;;;;;;;4912284;29;20056;-62
2023/07/28 10:05:32;;;;;;;11.83;9.13;;;;;;;;;;4894920;29;20060;-62
2023/07/28 10:07:59;;;;;;;22.23;10.10;;;;;;;;;;4911833;29;20051;-62
2023/07/28 10:10:26;;;;;;;19.47;11.13;;;;;;;;;;4912474;29;20056;-65
2023/07/28 10:12:53;;;;;;;19.97;12.13;;;;;;;;;;4912145;29;20591;-65
2023/07/28 10:15:20;;;;;;;19.33;12.90;;;;;;;;;;4912014;29;20106;-65
2023/07/28 10:17:57;;;;;;;28.57;16.17;;;;;;;;;;4912335;29;20044;-65
2023/07/28 10:20:29;;;;;;;17.00;13.17;;;;;;;;;;4911457;29;20106;-65
2023/07/28 10:23:02;;;;;;;17.43;12.33;;;;;;;;;;4911906;29;20060;-65
2023/07/28 10:25:28;;;;;;;19.50;11.87;;;;;;;;;;4911852;29;20059;-65
2023/07/28 10:27:55;;;;;;;16.80;12.23;;;;;;;;;;4911449;29;20589;-65
2023/07/28 10:30:21;;;;;;;21.23;12.30;;;;;;;;;;4911688;29;20491;-65
2023/07/28 10:32:50;;;;;;;14.40;11.20;;;;;;;;;;4911004;29;20522;-65
2023/07/28 10:35:22;;;;;;;15.80;9.97;;;;;;;;;;4911194;29;20060;-65
2023/07/28 10:37:48;;;;;;;11.73;9.63;;;;;;;;;;4911333;29;20054;-65
2023/07/28 10:40:31;;;;;;;12.40;10.57;;;;;;;;;;4910663;29;20115;-65
2023/07/28 10:42:58;;;;;;;14.20;11.35;;;;;;;;;;4910940;29;20048;-65
2023/07/28 10:45:25;;;;;;;16.00;12.33;;;;;;;;;;4912062;29;20055;-65
2023/07/28 10:47:55;;;;;;;16.87;11.37;;;;;;;;;;4911687;29;20099;-66
2023/07/28 10:50:21;;;;;;;14.23;9.60;;;;;;;;;;4911169;29;20052;-66
2023/07/28 10:52:47;;;;;;;12.63;9.60;;;;;;;;;;4909803;29;20419;-65
2023/07/28 10:55:14;;;;;;;12.23;8.73;;;;;;;;;;4911780;29;20566;-65
2023/07/28 10:57:41;;;;;;;12.87;8.97;;;;;;;;;;4911004;29;20060;-65
2023/07/28 11:00:08;;;;;;;13.07;9.20;;;;;;;;;;4910567;29;20052;-65
2023/07/28 11:02:34;;;;;;;15.97;10.23;;;;;;;;;;4892994;29;20052;-65
2023/07/28 11:05:00;;;;;;;14.97;11.10;;;;;;;;;;4910024;29;20044;-65
2023/07/28 11:07:26;;;;;;;16.23;12.47;;;;;;;;;;4911494;29;20063;-64
2023/07/28 11:09:54;;;;;;;14.37;12.40;;;;;;;;;;4910562;29;20054;-65
2023/07/28 11:12:20;;;;;;;19.73;12.67;;;;;;;;;;4911793;29;20529;-65
2023/07/28 11:14:47;;;;;;;13.40;9.77;;;;;;;;;;4912090;29;20056;-65
2023/07/28 11:17:15;;;;;;;10.93;8.70;;;;;;;;;;4913451;29;20064;-65
2023/07/28 11:19:41;;;;;;;16.70;9.60;;;;;;;;;;4914910;29;20062;-65
2023/07/28 11:22:07;;;;;;;12.47;8.90;;;;;;;;;;4914431;29;20052;-65
2023/07/28 11:24:34;;;;;;;12.03;10.17;;;;;;;;;;4913899;29;20454;-65
2023/07/28 11:27:00;;;;;;;16.83;9.97;;;;;;;;;;4913702;29;20052;-65
2023/07/28 11:29:27;;;;;;;14.07;10.27;;;;;;;;;;4913830;29;20052;-65
2023/07/28 11:31:53;;;;;;;14.70;9.70;;;;;;;;;;4911816;29;20055;-65
2023/07/28 11:34:19;;;;;;;11.63;7.93;;;;;;;;;;4897889;29;20562;-65
2023/07/28 11:36:46;;;;;;;8.27;6.40;;;;;;;;;;4914981;29;20419;-65
2023/07/28 11:39:14;;;;;;;8.57;6.33;;;;;;;;;;4915303;29;20044;-65
2023/07/28 11:41:40;;;;;;;10.07;6.57;;;;;;;;;;4914020;29;20059;-66
2023/07/28 11:44:06;;;;;;;8.80;6.37;;;;;;;;;;4914649;29;20048;-65
2023/07/28 11:46:40;;;;;;;10.10;5.70;;;;;;;;;;4915217;29;20044;-65
2023/07/28 11:49:08;;;;;;;9.10;5.75;;;;;;;;;;4914547;29;20057;-65
2023/07/28 11:51:38;;;;;;;9.07;5.65;;;;;;;;;;4913770;29;20048;-65
2023/07/28 11:54:04;;;;;;;7.65;5.07;;;;;;;;;;4915027;29;20056;-65
2023/07/28 11:56:30;;;;;;;10.05;5.40;;;;;;;;;;4914724;29;20148;-65
2023/07/28 11:58:56;;;;;;;7.20;4.13;;;;;;;;;;4914083;29;20055;-64
2023/07/28 12:01:23;;;;;;;5.95;4.18;;;;;;;;;;4914685;29;20047;-65
2023/07/28 12:03:49;;;;;;;5.82;3.70;;;;;;;;;;4914443;29;20049;-64
2023/07/28 12:06:15;;;;;;;5.32;3.00;;;;;;;;;;4914517;29;20556;-62
2023/07/28 12:08:41;;;;;;;4.53;3.00;;;;;;;;;;4915067;29;20072;-61
2023/07/28 12:11:12;;;;;;;5.43;4.13;;;;;;;;;;4914101;29;20418;-61
2023/07/28 12:13:51;;;;;;;4.82;4.32;;;;;;;;;;4914945;29;20118;-61
2023/07/28 12:16:37;;;;;;;7.30;4.75;;;;;;;;;;4913826;29;20055;-61
2023/07/28 12:19:04;;;;;;;4.85;4.13;;;;;;;;;;4911391;29;20056;-61
2023/07/28 12:21:31;;;;;;;5.28;3.95;;;;;;;;;;4914211;29;20048;-60
2023/07/28 12:23:57;;;;;;;5.35;3.75;;;;;;;;;;4914581;29;20100;-60
2023/07/28 12:26:23;;;;;;;4.93;3.60;;;;;;;;;;4912723;29;20056;-60
2023/07/28 12:28:49;;;;;;;6.38;3.53;;;;;;;;;;4912052;29;20107;-60
2023/07/28 12:31:15;;;;;;;5.95;3.30;;;;;;;;;;4914215;29;20066;-60
2023/07/28 12:33:41;;;;;;;7.00;3.10;;;;;;;;;;4911996;29;20048;-60
2023/07/28 12:36:07;;;;;;;4.78;3.10;;;;;;;;;;4912646;29;20052;-60
2023/07/28 12:38:33;;;;;;;3.17;2.42;;;;;;;;;;4913217;29;20066;-59
2023/07/28 12:40:59;;;;;;;4.10;2.75;;;;;;;;;;4910254;29;20493;-60
2023/07/28 12:43:26;;;;;;;4.40;2.75;;;;;;;;;;4910233;29;20139;-60
2023/07/28 12:45:53;;;;;;;4.05;2.35;;;;;;;;;;4910063;29;20048;-59
2023/07/28 12:48:19;;;;;;;5.55;2.92;;;;;;;;;;4909376;29;20056;-60
2023/07/28 12:50:46;;;;;;;4.00;2.97;;;;;;;;;;4910109;29;20460;-60
2023/07/28 12:53:12;;;;;;;4.47;3.17;;;;;;;;;;4909958;29;20040;-59
2023/07/28 12:55:38;;;;;;;5.47;3.10;;;;;;;;;;4911384;29;20044;-59
2023/07/28 12:58:04;;;;;;;5.72;3.00;;;;;;;;;;4913166;29;20048;-59
2023/07/28 13:00:30;;;;;;;4.15;2.53;;;;;;;;;;4913296;29;20067;-59
2023/07/28 13:02:56;;;;;;;4.60;2.58;;;;;;;;;;4913340;29;20059;-59
2023/07/28 13:05:22;;;;;;;3.55;2.60;;;;;;;;;;4913174;29;20052;-59
2023/07/28 13:07:48;;;;;;;3.40;2.78;;;;;;;;;;4913225;29;20048;-60
2023/07/28 13:10:14;;;;;;;5.35;2.60;;;;;;;;;;4913070;29;20051;-59
2023/07/28 13:12:40;;;;;;;5.57;3.13;;;;;;;;;;4913005;29;20052;-60
2023/07/28 13:15:06;;;;;;;4.85;2.40;;;;;;;;;;4913047;29;20486;-59
2023/07/28 13:17:32;;;;;;;5.10;3.22;;;;;;;;;;4913356;29;20144;-59
2023/07/28 13:19:59;;;;;;;4.28;2.55;;;;;;;;;;4912443;29;20071;-59
2023/07/28 13:22:26;;;;;;;4.20;2.85;;;;;;;;;;4912999;29;20051;-59
2023/07/28 13:24:53;;;;;;;5.07;2.67;;;;;;;;;;4912765;29;20048;-59
2023/07/28 13:27:19;;;;;;;5.80;2.83;;;;;;;;;;4912191;29;20479;-59
2023/07/28 13:29:45;;;;;;;5.70;2.83;;;;;;;;;;4912782;29;20056;-59
2023/07/28 13:32:18;;;;;;;4.45;3.13;;;;;;;;;;4912696;29;20491;-59
2023/07/28 13:34:44;;;;;;;5.43;2.90;;;;;;;;;;4912877;29;20426;-59
2023/07/28 13:37:10;;;;;;;7.43;3.95;;;;;;;;;;4912762;29;20171;-59
2023/07/28 13:39:36;;;;;;;6.05;3.75;;;;;;;;;;4911419;29;20153;-59
2023/07/28 13:42:02;;;;;;;5.70;3.80;;;;;;;;;;4912536;29;20107;-59
2023/07/28 13:44:28;;;;;;;6.65;3.80;;;;;;;;;;4912561;29;20079;-59
2023/07/28 13:46:54;;;;;;;5.20;3.70;;;;;;;;;;4911966;29;20131;-59
2023/07/28 13:49:20;;;;;;;4.93;3.70;;;;;;;;;;4912403;29;20157;-59
2023/07/28 13:51:46;;;;;;;4.95;3.47;;;;;;;;;;4912435;29;20439;-59
2023/07/28 13:54:12;;;;;;;5.28;3.00;;;;;;;;;;4912516;29;20048;-59
2023/07/28 13:56:38;;;;;;;6.43;3.40;;;;;;;;;;4912413;29;20150;-59
2023/07/28 13:59:05;;;;;;;5.10;3.08;;;;;;;;;;4912304;29;20063;-59
2023/07/28 14:01:31;;;;;;;5.30;3.53;;;;;;;;;;4911744;29;20048;-59
2023/07/28 14:03:57;;;;;;;4.22;2.88;;;;;;;;;;4912219;29;20135;-59
2023/07/28 14:06:23;;;;;;;5.78;2.63;;;;;;;;;;4912360;29;20467;-59
2023/07/28 14:08:49;;;;;;;4.28;2.50;;;;;;;;;;4912175;29;20044;-59
2023/07/28 14:11:15;;;;;;;3.78;2.83;;;;;;;;;;4911663;29;20055;-60
2023/07/28 14:13:42;;;;;;;3.85;2.90;;;;;;;;;;4912206;29;20052;-59
2023/07/28 14:16:09;;;;;;;3.47;3.08;;;;;;;;;;4911883;29;20048;-59
2023/07/28 14:18:35;;;;;;;5.90;2.90;;;;;;;;;;4911410;29;20119;-59
2023/07/28 14:21:01;;;;;;;4.53;3.22;;;;;;;;;;4912194;29;20055;-60